Time;durP1;ratioP1;P1;durP2;ratioP2;P2;SDS_P1;SDS_P2;PMS_P1;PMS_P2;Temp;Humidity;BMP_temperature;BMP_pressure;BME280_temperature;BME280_humidity;BME280_pressure;Samples;Min_cycle;Max_cycle;Signal;HPM_P1;HPM_P2
2022/07/23 00:00:47;;;;;;;4.55;3.72;;;;;;;15.59;100.00;101943.34;5106184;28;20091;-70
2022/07/23 00:03:13;;;;;;;8.20;3.70;;;;;;;15.63;100.00;101939.88;5115110;28;20059;-71
2022/07/23 00:05:39;;;;;;;8.88;3.95;;;;;;;15.68;100.00;101942.56;5084719;28;20028;-71
2022/07/23 00:08:06;;;;;;;7.55;3.80;;;;;;;15.67;100.00;101928.44;5099320;28;20469;-70
2022/07/23 00:10:31;;;;;;;7.07;3.70;;;;;;;15.73;100.00;101935.56;5097964;28;20372;-72
2022/07/23 00:12:56;;;;;;;7.13;3.65;;;;;;;15.70;100.00;101930.22;5112582;28;20028;-71
2022/07/23 00:15:22;;;;;;;4.72;3.38;;;;;;;15.69;100.00;101920.47;5098754;28;20032;-72
2022/07/23 00:17:47;;;;;;;6.45;3.92;;;;;;;15.64;100.00;101916.88;5114168;28;20030;-71
2022/07/23 00:20:13;;;;;;;8.07;3.70;;;;;;;15.54;100.00;101905.25;5110189;28;20387;-71
2022/07/23 00:22:53;;;;;;;6.72;3.80;;;;;;;15.54;100.00;101909.69;5112779;28;20023;-71
2022/07/23 00:25:20;;;;;;;7.05;3.80;;;;;;;15.62;100.00;101897.41;5104824;28;20115;-69
2022/07/23 00:27:45;;;;;;;7.80;3.70;;;;;;;15.68;100.00;101908.06;5115861;28;20088;-71
2022/07/23 00:30:11;;;;;;;4.25;3.42;;;;;;;15.70;100.00;101900.16;5090855;28;20031;-71
2022/07/23 00:32:51;;;;;;;8.60;3.53;;;;;;;15.74;100.00;101902.88;5081297;28;20036;-71
2022/07/23 00:35:20;;;;;;;8.27;3.25;;;;;;;15.69;100.00;101899.25;5114728;28;20098;-70
2022/07/23 00:37:46;;;;;;;10.90;3.92;;;;;;;15.63;100.00;101888.59;5097724;28;20466;-71
2022/07/23 00:40:11;;;;;;;8.73;3.42;;;;;;;15.54;100.00;101889.34;5115158;28;20032;-72
2022/07/23 00:42:37;;;;;;;5.90;3.63;;;;;;;15.62;100.00;101890.31;5091844;28;20031;-71
2022/07/23 00:45:03;;;;;;;6.60;3.03;;;;;;;15.58;100.00;101890.28;5105273;28;20043;-71
2022/07/23 00:47:29;;;;;;;4.97;3.10;;;;;;;15.55;100.00;101900.88;5109488;27;20023;-71
2022/07/23 00:49:54;;;;;;;4.60;3.08;;;;;;;15.52;100.00;101899.94;5102660;28;20032;-70
2022/07/23 00:52:19;;;;;;;6.28;3.33;;;;;;;15.45;100.00;101900.75;5112326;28;20043;-71
2022/07/23 00:54:45;;;;;;;6.50;3.60;;;;;;;15.50;100.00;101892.81;5103041;28;20123;-70
2022/07/23 00:57:10;;;;;;;12.95;3.72;;;;;;;15.45;100.00;101899.81;5105733;28;20500;-71
2022/07/23 00:59:38;;;;;;;9.45;3.28;;;;;;;15.41;100.00;101898.91;5111970;28;20026;-71
2022/07/23 01:02:03;;;;;;;6.43;3.75;;;;;;;15.32;100.00;101888.19;5096040;28;20047;-71
2022/07/23 01:04:29;;;;;;;10.27;3.88;;;;;;;15.31;100.00;101883.72;5111872;28;20389;-71
2022/07/23 01:06:54;;;;;;;5.63;3.40;;;;;;;15.30;100.00;101879.28;5103686;28;20047;-71
2022/07/23 01:09:20;;;;;;;11.98;3.72;;;;;;;15.37;100.00;101874.97;5108023;28;20026;-70
2022/07/23 01:11:46;;;;;;;6.70;4.00;;;;;;;15.38;100.00;101877.63;5102398;28;20055;-71
2022/07/23 01:14:15;;;;;;;7.20;3.80;;;;;;;15.34;100.00;101875.81;5099506;28;20449;-70
2022/07/23 01:16:42;;;;;;;10.32;3.75;;;;;;;15.25;100.00;101876.59;5104156;28;20026;-71
2022/07/23 01:19:08;;;;;;;9.65;3.58;;;;;;;15.22;100.00;101881.88;5110805;28;20106;-71
2022/07/23 01:21:38;;;;;;;7.28;3.80;;;;;;;15.19;100.00;101876.50;5106629;28;20066;-70
2022/07/23 01:24:04;;;;;;;5.75;3.58;;;;;;;15.20;100.00;101877.41;5106533;28;20356;-70
2022/07/23 01:26:29;;;;;;;8.77;3.70;;;;;;;15.18;100.00;101875.63;5108171;28;20111;-70
2022/07/23 01:28:55;;;;;;;9.25;4.20;;;;;;;15.14;100.00;101873.78;5114011;28;21749;-71
2022/07/23 01:31:20;;;;;;;11.75;3.97;;;;;;;15.09;100.00;101878.13;5110121;28;20471;-72
2022/07/23 01:33:46;;;;;;;5.13;3.95;;;;;;;15.04;100.00;101881.59;5115270;28;20031;-71
2022/07/23 01:36:11;;;;;;;6.22;3.85;;;;;;;15.09;100.00;101879.91;5113953;28;20034;-71
2022/07/23 01:38:36;;;;;;;7.03;3.80;;;;;;;15.03;100.00;101880.72;5110967;28;20498;-70
2022/07/23 01:41:02;;;;;;;4.93;3.78;;;;;;;14.95;100.00;101877.06;5108524;28;20027;-71
2022/07/23 01:43:28;;;;;;;5.03;3.85;;;;;;;14.89;100.00;101871.66;5113348;28;20039;-71
2022/07/23 01:45:53;;;;;;;6.75;4.50;;;;;;;14.83;100.00;101877.75;5085307;28;20028;-70
2022/07/23 01:48:18;;;;;;;6.70;3.63;;;;;;;14.82;100.00;101868.88;5096899;28;20020;-71
2022/07/23 01:50:46;;;;;;;7.50;4.22;;;;;;;14.82;100.00;101875.97;5099245;28;20118;-72
2022/07/23 01:53:12;;;;;;;8.63;4.57;;;;;;;14.74;100.00;101886.44;5104283;28;20079;-71
2022/07/23 01:55:37;;;;;;;8.40;4.45;;;;;;;14.74;100.00;101882.91;5106543;28;20490;-72
2022/07/23 01:58:02;;;;;;;9.43;4.95;;;;;;;14.69;100.00;101882.84;5113798;28;20513;-71
2022/07/23 02:00:28;;;;;;;5.40;3.90;;;;;;;14.58;100.00;101887.00;5106814;28;20062;-70
2022/07/23 02:02:53;;;;;;;5.82;4.57;;;;;;;14.54;100.00;101886.09;5105969;28;20031;-71
2022/07/23 02:05:18;;;;;;;7.40;4.28;;;;;;;14.49;100.00;101880.69;5076393;28;20132;-72
2022/07/23 02:07:44;;;;;;;6.18;4.30;;;;;;;14.50;100.00;101889.53;5106087;28;20475;-71
2022/07/23 02:10:09;;;;;;;7.35;4.15;;;;;;;14.49;100.00;101880.69;5111464;28;20541;-71
2022/07/23 02:12:34;;;;;;;6.68;4.30;;;;;;;14.50;100.00;101874.53;5109971;28;20490;-72
2022/07/23 02:14:59;;;;;;;5.47;4.03;;;;;;;14.48;100.00;101868.31;5096280;28;20467;-71
2022/07/23 02:17:25;;;;;;;11.15;4.28;;;;;;;14.47;100.00;101873.59;5113240;28;20023;-70
2022/07/23 02:19:50;;;;;;;7.72;4.03;;;;;;;14.51;100.00;101872.78;5106863;28;20034;-71
2022/07/23 02:22:16;;;;;;;7.65;4.32;;;;;;;14.49;100.00;101872.75;5109808;28;20026;-70
2022/07/23 02:24:41;;;;;;;7.28;4.50;;;;;;;14.54;100.00;101879.88;5112261;28;20459;-71
2022/07/23 02:27:06;;;;;;;10.98;4.63;;;;;;;14.52;100.00;101871.03;5113941;28;20023;-71
2022/07/23 02:29:32;;;;;;;5.05;4.22;;;;;;;14.52;100.00;101876.34;5109562;28;20023;-70
2022/07/23 02:31:57;;;;;;;9.65;4.68;;;;;;;14.49;100.00;101877.16;5091459;28;20116;-70
2022/07/23 02:34:22;;;;;;;7.70;4.90;;;;;;;14.48;100.00;101878.91;5113875;28;20094;-70
2022/07/23 02:36:47;;;;;;;6.95;4.60;;;;;;;14.47;100.00;101877.16;5111245;28;20058;-71
2022/07/23 02:39:14;;;;;;;5.55;4.85;;;;;;;14.48;100.00;101883.31;5105700;28;20028;-71
2022/07/23 02:41:39;;;;;;;7.88;4.80;;;;;;;14.43;100.00;101885.91;5113415;28;20035;-71
2022/07/23 02:44:05;;;;;;;8.82;4.65;;;;;;;14.44;100.00;101882.38;5113021;28;20023;-71
2022/07/23 02:46:30;;;;;;;7.65;4.70;;;;;;;14.44;100.00;101882.38;5109553;28;20047;-71
2022/07/23 02:48:55;;;;;;;13.93;4.90;;;;;;;14.42;100.00;101885.84;5106050;28;20107;-71
2022/07/23 02:51:20;;;;;;;6.00;5.15;;;;;;;14.41;100.00;101889.38;5112387;28;20074;-71
2022/07/23 02:53:46;;;;;;;10.48;5.35;;;;;;;14.47;100.00;101890.38;5105594;28;20023;-71
2022/07/23 02:56:11;;;;;;;11.95;4.70;;;;;;;14.40;100.00;101890.25;5107036;28;20026;-72
2022/07/23 02:58:37;;;;;;;9.25;5.18;;;;;;;14.39;100.00;101889.38;5112125;28;20107;-71
2022/07/23 03:01:03;;;;;;;6.70;5.28;;;;;;;14.39;100.00;101878.78;5111130;28;20019;-71
2022/07/23 03:03:28;;;;;;;6.60;5.10;;;;;;;14.40;100.00;101877.88;5100021;28;20028;-70
2022/07/23 03:05:53;;;;;;;11.70;5.03;;;;;;;14.42;100.00;101880.56;5109860;28;20032;-70
2022/07/23 03:08:19;;;;;;;9.75;4.80;;;;;;;14.43;100.00;101882.34;5103507;28;20103;-71
2022/07/23 03:10:44;;;;;;;7.95;5.13;;;;;;;14.45;100.00;101880.63;5109064;28;20027;-70
2022/07/23 03:13:09;;;;;;;9.75;4.90;;;;;;;14.43;100.00;101877.97;5089104;28;20029;-71
2022/07/23 03:15:35;;;;;;;8.73;5.32;;;;;;;14.38;100.00;101878.72;5106980;28;20035;-72
2022/07/23 03:18:00;;;;;;;8.23;5.22;;;;;;;14.44;100.00;101882.38;5103157;28;20087;-72
2022/07/23 03:20:25;;;;;;;9.13;5.22;;;;;;;14.44;100.00;101879.72;5100811;28;20032;-70
2022/07/23 03:22:51;;;;;;;5.05;4.55;;;;;;;14.44;100.00;101879.72;5108862;28;20399;-72
2022/07/23 03:25:16;;;;;;;8.55;5.38;;;;;;;14.47;100.00;101882.44;5111818;28;20386;-71
2022/07/23 03:27:41;;;;;;;10.23;5.15;;;;;;;14.43;100.00;101877.97;5108257;28;20016;-71
2022/07/23 03:30:07;;;;;;;10.32;5.18;;;;;;;14.42;100.00;101872.59;5102298;28;20371;-71
2022/07/23 03:32:33;;;;;;;10.27;4.80;;;;;;;14.37;100.00;101871.66;5112726;28;20352;-72
2022/07/23 03:34:58;;;;;;;7.95;5.53;;;;;;;14.33;100.00;101882.19;5108949;28;20016;-72
2022/07/23 03:37:24;;;;;;;8.05;5.15;;;;;;;14.28;100.00;101882.97;5109002;28;20034;-70
2022/07/23 03:39:50;;;;;;;6.40;4.95;;;;;;;14.25;100.00;101882.91;5112420;28;20027;-70
2022/07/23 03:42:15;;;;;;;7.70;5.13;;;;;;;14.26;100.00;101888.22;5101555;28;20357;-72
2022/07/23 03:44:41;;;;;;;6.43;5.00;;;;;;;14.18;100.00;101891.63;5109563;28;20032;-72
2022/07/23 03:47:06;;;;;;;7.57;5.30;;;;;;;14.19;100.00;101896.94;5097322;28;20024;-70
2022/07/23 03:49:32;;;;;;;7.57;4.90;;;;;;;14.28;100.00;101896.19;5108033;28;20057;-71
2022/07/23 03:51:58;;;;;;;8.00;5.82;;;;;;;14.32;100.00;101893.66;5093803;28;20118;-72
2022/07/23 03:54:23;;;;;;;7.35;5.80;;;;;;;14.28;100.00;101899.75;5091499;28;20110;-71
2022/07/23 03:56:48;;;;;;;8.00;5.65;;;;;;;14.19;100.00;101899.59;5107506;28;20047;-71
2022/07/23 03:59:14;;;;;;;9.80;5.45;;;;;;;14.25;100.00;101899.69;5098613;28;20044;-71
2022/07/23 04:01:39;;;;;;;8.25;5.15;;;;;;;14.24;100.00;101912.91;5104499;28;20416;-70
2022/07/23 04:04:05;;;;;;;10.38;5.57;;;;;;;14.25;100.00;101909.41;5106725;28;20020;-71
2022/07/23 04:06:30;;;;;;;8.30;5.90;;;;;;;14.26;100.00;101914.72;5113563;28;20023;-71
2022/07/23 04:08:55;;;;;;;9.90;5.60;;;;;;;14.23;100.00;101911.09;5104187;28;20026;-70
2022/07/23 04:11:21;;;;;;;10.35;5.35;;;;;;;14.19;100.00;101914.56;5108342;28;20024;-71
2022/07/23 04:13:46;;;;;;;7.20;5.75;;;;;;;14.18;100.00;101912.81;5114456;28;20099;-71
2022/07/23 04:16:11;;;;;;;10.63;5.22;;;;;;;14.13;100.00;101913.59;5116426;28;20039;-71
2022/07/23 04:18:37;;;;;;;7.88;4.97;;;;;;;14.12;100.00;101910.91;5103127;28;20027;-70
2022/07/23 04:21:02;;;;;;;5.13;4.63;;;;;;;14.14;100.00;101904.78;5105577;28;20020;-71
2022/07/23 04:23:28;;;;;;;6.70;4.95;;;;;;;14.15;100.00;101909.22;5111319;28;20034;-71
2022/07/23 04:25:53;;;;;;;8.73;5.85;;;;;;;14.18;100.00;101904.84;5109247;28;20468;-70
2022/07/23 04:28:18;;;;;;;7.55;6.28;;;;;;;14.28;100.00;101914.72;5115879;28;20443;-70
2022/07/23 04:30:44;;;;;;;8.38;5.85;;;;;;;14.20;100.00;101913.69;5113278;28;20076;-72
2022/07/23 04:33:09;;;;;;;8.55;6.00;;;;;;;14.25;100.00;101914.69;5116535;28;20495;-69
2022/07/23 04:35:35;;;;;;;9.50;5.68;;;;;;;14.32;100.00;101912.19;5115906;28;20063;-71
2022/07/23 04:38:01;;;;;;;9.65;5.80;;;;;;;14.41;100.00;101922.03;5104972;28;20020;-70
2022/07/23 04:40:27;;;;;;;11.90;5.80;;;;;;;14.44;100.00;101916.78;5080334;28;20035;-70
2022/07/23 04:42:53;;;;;;;8.00;5.75;;;;;;;14.45;100.00;101918.59;5114368;28;20024;-71
2022/07/23 04:45:19;;;;;;;7.15;5.55;;;;;;;14.44;100.00;101908.84;5109261;28;20107;-71
2022/07/23 04:47:44;;;;;;;10.93;5.78;;;;;;;14.43;100.00;101915.03;5103592;28;20024;-71
2022/07/23 04:50:09;;;;;;;6.78;5.65;;;;;;;14.43;100.00;101909.72;5111022;28;20034;-71
2022/07/23 04:52:35;;;;;;;9.90;5.35;;;;;;;14.42;100.00;101905.28;5110982;28;20042;-72
2022/07/23 04:55:00;;;;;;;8.15;5.75;;;;;;;14.40;100.00;101909.66;5113757;28;20028;-70
2022/07/23 04:57:25;;;;;;;11.65;6.05;;;;;;;14.43;100.00;101915.03;5104776;28;20048;-71
2022/07/23 04:59:51;;;;;;;10.50;6.03;;;;;;;14.44;100.00;101922.09;5109540;28;20375;-71
2022/07/23 05:02:16;;;;;;;8.80;5.40;;;;;;;14.44;100.00;101915.91;5112212;28;20019;-71
2022/07/23 05:04:41;;;;;;;9.23;5.70;;;;;;;14.45;100.00;101915.06;5112196;28;20023;-70
2022/07/23 05:07:07;;;;;;;9.57;6.47;;;;;;;14.45;100.00;101912.41;5106290;28;20024;-71
2022/07/23 05:09:32;;;;;;;7.25;6.30;;;;;;;14.47;100.00;101913.31;5114022;28;20026;-71
2022/07/23 05:11:57;;;;;;;9.02;5.82;;;;;;;14.50;100.00;101916.91;5115280;28;20125;-71
2022/07/23 05:14:23;;;;;;;9.30;5.60;;;;;;;14.54;100.00;101916.97;5093997;28;20809;-71
2022/07/23 05:16:48;;;;;;;11.43;5.75;;;;;;;14.60;100.00;101915.31;5090943;28;20080;-72
2022/07/23 05:19:13;;;;;;;9.18;6.55;;;;;;;14.65;100.00;101920.75;5103524;28;20020;-71
2022/07/23 05:21:39;;;;;;;11.43;6.88;;;;;;;14.69;100.00;101919.00;5110102;28;20019;-70
2022/07/23 05:24:05;;;;;;;9.55;6.97;;;;;;;14.72;100.00;101922.63;5108270;28;20499;-71
2022/07/23 05:26:30;;;;;;;8.43;6.15;;;;;;;14.80;100.00;101922.75;5106963;28;20036;-71
2022/07/23 05:28:56;;;;;;;7.90;6.28;;;;;;;14.87;100.00;101921.06;5113549;28;20031;-73
2022/07/23 05:31:21;;;;;;;7.28;5.43;;;;;;;14.92;100.00;101922.03;5114322;28;20114;-72
2022/07/23 05:33:46;;;;;;;9.82;6.18;;;;;;;14.97;100.00;101923.88;5109742;28;20057;-71
2022/07/23 05:36:12;;;;;;;14.00;5.82;;;;;;;15.03;100.00;101916.91;5112049;28;20028;-71
2022/07/23 05:38:37;;;;;;;10.10;5.35;;;;;;;15.08;100.00;101925.81;5104935;28;20032;-72
2022/07/23 05:41:03;;;;;;;6.55;5.10;;;;;;;15.13;100.00;101918.84;5102605;28;20103;-71
2022/07/23 05:43:28;;;;;;;8.25;5.03;;;;;;;15.15;100.00;101920.66;5105491;28;20042;-72
2022/07/23 05:45:54;;;;;;;8.13;5.00;;;;;;;15.23;100.00;101919.88;5101882;28;20094;-73
2022/07/23 05:48:20;;;;;;;12.32;5.55;;;;;;;15.29;100.00;101933.22;5104554;28;20047;-71
2022/07/23 05:50:46;;;;;;;6.95;4.72;;;;;;;15.33;100.00;101935.06;5113310;28;20027;-71
2022/07/23 05:53:12;;;;;;;8.95;5.47;;;;;;;15.38;100.00;101935.09;5112992;28;20062;-71
2022/07/23 05:55:37;;;;;;;8.20;4.65;;;;;;;15.46;100.00;101934.34;5113570;28;20058;-72
2022/07/23 05:58:03;;;;;;;9.13;4.90;;;;;;;15.48;100.00;101935.25;5101321;28;20052;-71
2022/07/23 06:00:30;;;;;;;9.23;4.75;;;;;;;15.56;100.00;101942.41;5110417;28;20525;-72
2022/07/23 06:02:55;;;;;;;6.47;4.35;;;;;;;15.58;100.00;101938.03;5102717;28;20042;-71
2022/07/23 06:05:21;;;;;;;8.23;5.55;;;;;;;15.62;100.00;101947.81;5109740;28;20035;-72
2022/07/23 06:07:46;;;;;;;9.18;5.00;;;;;;;15.64;100.00;101936.34;5112224;28;20023;-72
2022/07/23 06:10:12;;;;;;;9.00;4.22;;;;;;;15.67;100.00;101943.47;5101585;28;20695;-71
2022/07/23 06:12:37;;;;;;;5.43;4.70;;;;;;;15.73;100.00;101943.53;5103576;28;20036;-71
2022/07/23 06:15:03;;;;;;;9.10;3.85;;;;;;;15.78;100.00;101940.97;5107269;28;20551;-72
2022/07/23 06:17:29;;;;;;;4.75;3.22;;;;;;;15.87;100.00;101942.84;5110839;28;20528;-71
2022/07/23 06:19:55;;;;;;;5.57;3.10;;;;;;;15.94;100.00;101945.59;5109617;28;20098;-70
2022/07/23 06:22:21;;;;;;;6.55;3.08;;;;;;;16.05;100.00;101943.09;5113500;28;20024;-70
2022/07/23 06:24:47;;;;;;;7.05;3.00;;;;;;;16.11;100.00;101944.91;5105160;28;20529;-71
2022/07/23 06:27:12;;;;;;;8.00;2.78;;;;;;;16.17;100.00;101932.59;5112762;28;20031;-70
2022/07/23 06:29:37;;;;;;;4.50;2.85;;;;;;;16.23;100.00;101928.22;5107859;28;20028;-70
2022/07/23 06:32:03;;;;;;;4.88;2.70;;;;;;;16.31;100.00;101934.50;5108822;28;20340;-71
2022/07/23 06:34:28;;;;;;;5.78;2.90;;;;;;;16.35;100.00;101933.66;5094879;28;20474;-71
2022/07/23 06:36:53;;;;;;;5.47;3.08;;;;;;;16.39;100.00;101935.47;5114090;28;20088;-72
2022/07/23 06:39:19;;;;;;;5.07;3.25;;;;;;;16.43;100.00;101936.41;5114352;28;20023;-71
2022/07/23 06:41:44;;;;;;;4.85;2.88;;;;;;;16.49;100.00;101937.34;5112527;28;20045;-71
2022/07/23 06:44:10;;;;;;;10.13;3.15;;;;;;;16.56;100.00;101935.63;5104183;28;20440;-70
2022/07/23 06:46:35;;;;;;;6.65;2.38;;;;;;;16.60;100.00;101945.41;5102795;28;20027;-72
2022/07/23 06:49:00;;;;;;;3.95;2.20;;;;;;;16.67;100.00;101944.59;5098965;28;20032;-72
2022/07/23 06:51:26;;;;;;;6.20;2.53;;;;;;;16.77;100.00;101942.91;5112493;28;20114;-71
2022/07/23 06:53:51;;;;;;;6.18;2.83;;;;;;;16.75;100.00;101944.66;5105928;28;22369;-72
2022/07/23 06:56:17;;;;;;;7.72;2.70;;;;;;;16.81;100.00;101944.72;5089596;28;20475;-71
2022/07/23 06:58:42;;;;;;;4.60;2.78;;;;;;;16.85;100.00;101950.97;5104078;28;20045;-73
2022/07/23 07:01:07;;;;;;;9.05;2.63;;;;;;;16.87;100.00;101949.19;5100095;28;20035;-71
2022/07/23 07:03:33;;;;;;;6.32;2.95;;;;;;;16.93;100.00;101961.66;5105810;28;20506;-71
2022/07/23 07:05:58;;;;;;;4.35;2.42;;;;;;;17.00;100.00;101960.84;5108907;28;20490;-71
2022/07/23 07:08:24;;;;;;;5.88;2.40;;;;;;;17.07;100.00;101957.34;5098958;28;20066;-71
2022/07/23 07:10:49;;;;;;;4.47;2.70;;;;;;;17.11;100.00;101961.81;5077556;28;20073;-74
2022/07/23 07:13:15;;;;;;;7.43;2.60;;;;;;;17.16;100.00;101964.53;5097901;28;20109;-70
2022/07/23 07:15:41;;;;;;;3.00;1.80;;;;;;;17.09;100.00;101960.03;5108558;28;20102;-71
2022/07/23 07:18:06;;;;;;;6.50;2.67;;;;;;;17.18;100.00;101968.94;5093568;28;20027;-70
2022/07/23 07:20:32;;;;;;;6.78;2.78;;;;;;;17.28;100.00;101961.94;5097370;28;20549;-72
2022/07/23 07:22:57;;;;;;;5.57;2.40;;;;;;;17.39;100.00;101970.00;5100650;28;20035;-69
2022/07/23 07:25:22;;;;;;;7.93;2.67;;;;;;;17.46;100.00;101965.63;5107699;28;20024;-67
2022/07/23 07:27:48;;;;;;;5.18;2.30;;;;;;;17.57;100.00;101963.88;5086673;28;20479;-72
2022/07/23 07:30:13;;;;;;;3.72;1.88;;;;;;;17.71;100.00;101977.25;5095116;28;20341;-72
2022/07/23 07:32:40;;;;;;;5.45;2.28;;;;;;;17.75;100.00;101963.09;5097310;28;20039;-72
2022/07/23 07:35:06;;;;;;;7.10;3.55;;;;;;;17.78;100.00;101971.06;5109475;28;20059;-72
2022/07/23 07:37:32;;;;;;;4.78;3.08;;;;;;;17.78;100.00;101968.41;5101173;28;20024;-72
2022/07/23 07:39:57;;;;;;;6.03;3.75;;;;;;;17.78;100.00;101970.19;5095496;28;20020;-73
2022/07/23 07:42:22;;;;;;;8.23;3.20;;;;;;;17.82;100.00;101970.25;5081436;28;20027;-73
2022/07/23 07:44:48;;;;;;;5.75;3.22;;;;;;;17.86;100.00;101979.13;5097390;28;20031;-73
2022/07/23 07:47:15;;;;;;;8.43;3.65;;;;;;;17.81;100.00;101973.78;5108457;28;20032;-71
2022/07/23 07:49:43;;;;;;;8.32;3.15;;;;;;;17.73;100.00;101974.59;5097497;28;20016;-71
2022/07/23 07:52:09;;;;;;;6.13;2.70;;;;;;;17.87;100.00;101984.44;5097264;28;20030;-72
2022/07/23 07:54:34;;;;;;;7.78;2.92;;;;;;;17.96;100.00;101980.97;5106099;28;20024;-73
2022/07/23 07:57:00;;;;;;;8.93;3.33;;;;;;;17.97;100.00;101984.53;5083037;28;20169;-73
2022/07/23 07:59:26;;;;;;;7.18;2.70;;;;;;;17.94;100.00;101981.84;5087142;28;20016;-73
2022/07/23 08:01:52;;;;;;;3.13;1.90;;;;;;;18.06;100.00;101984.56;5105089;28;20516;-72
2022/07/23 08:04:17;;;;;;;4.38;2.30;;;;;;;18.10;100.00;101977.47;5102781;28;20028;-74
2022/07/23 08:06:43;;;;;;;4.60;2.20;;;;;;;18.20;100.00;101988.19;5110271;28;20031;-72
2022/07/23 08:09:08;;;;;;;8.45;2.88;;;;;;;18.27;100.00;101985.50;5097501;28;20160;-73
2022/07/23 08:11:33;;;;;;;6.03;2.10;;;;;;;18.34;100.00;101980.22;5100902;28;20032;-73
2022/07/23 08:13:59;;;;;;;3.63;2.15;;;;;;;18.49;100.00;101984.69;5105523;28;20054;-73
2022/07/23 08:16:24;;;;;;;5.18;1.60;;;;;;;18.66;100.00;101989.16;5078642;28;20031;-71
2022/07/23 08:18:50;;;;;;;5.47;1.73;;;;;;;18.79;100.00;101990.94;5106362;28;20016;-73
2022/07/23 08:21:15;;;;;;;5.70;2.00;;;;;;;18.87;100.00;101989.16;5106557;28;20479;-72
2022/07/23 08:23:40;;;;;;;3.92;2.75;;;;;;;18.92;100.00;101993.66;5087029;28;20053;-73
2022/07/23 08:26:06;;;;;;;8.10;3.13;;;;;;;18.92;100.00;101993.66;5087679;28;20047;-75
2022/07/23 08:28:32;;;;;;;7.18;2.30;;;;;;;18.95;100.00;101994.56;5086804;28;20020;-72
2022/07/23 08:30:59;;;;;;;7.40;3.03;;;;;;;18.98;100.00;101991.88;5090520;28;20131;-73
2022/07/23 08:33:25;;;;;;;5.18;2.58;;;;;;;19.01;100.00;101999.00;5085171;28;20030;-73
2022/07/23 08:35:52;;;;;;;8.70;3.22;;;;;;;19.17;100.00;101995.41;5110723;28;20371;-72
2022/07/23 08:38:19;;;;;;;4.30;2.65;;;;;;;19.26;100.00;101998.97;5104276;28;20458;-74
2022/07/23 08:40:50;;;;;;;4.20;2.83;;;;;;;19.29;100.00;101993.63;5104576;28;20023;-74
2022/07/23 08:43:22;;;;;;;8.30;2.85;;;;;;;19.35;100.00;101990.97;5105232;28;20027;-73
2022/07/23 08:45:49;;;;;;;5.40;2.58;;;;;;;19.42;100.00;101995.38;5108179;28;20111;-73
2022/07/23 08:48:20;;;;;;;6.32;2.70;;;;;;;19.48;100.00;101992.72;5105769;28;20023;-73
2022/07/23 08:50:48;;;;;;;7.22;2.58;;;;;;;19.52;100.00;101999.81;5101519;28;20058;-74
2022/07/23 08:53:15;;;;;;;4.43;2.30;;;;;;;19.62;100.00;102000.69;5081362;28;20031;-74
2022/07/23 08:55:45;;;;;;;5.55;2.30;;;;;;;19.71;100.00;102006.00;5102350;28;20485;-74
2022/07/23 08:58:10;;;;;;;3.10;2.42;;;;;;;19.85;100.00;101999.78;5091247;28;20036;-75
2022/07/23 09:00:35;;;;;;;6.88;2.53;;;;;;;19.91;100.00;101998.84;5100727;28;20145;-74
2022/07/23 09:03:01;;;;;;;5.38;1.90;;;;;;;19.99;100.00;101997.91;5111173;28;20119;-73
2022/07/23 09:05:26;;;;;;;6.85;2.83;;;;;;;19.91;100.00;102004.19;5084836;28;20106;-74
2022/07/23 09:08:10;;;;;;;5.45;2.00;;;;;;;20.00;100.00;102005.03;5112770;28;20162;-74
2022/07/23 09:10:56;;;;;;;4.65;2.17;;;;;;;20.01;100.00;102012.16;5092785;28;20135;-72
2022/07/23 09:13:32;;;;;;;6.07;2.30;;;;;;;20.23;100.00;102012.06;5112494;28;20027;-75
2022/07/23 09:16:05;;;;;;;3.60;1.80;;;;;;;20.47;100.00;102005.72;5099519;28;20035;-74
2022/07/23 09:18:46;;;;;;;9.40;2.55;;;;;;;20.63;100.00;102016.28;5098369;28;20024;-74
2022/07/23 09:21:19;;;;;;;4.10;1.98;;;;;;;20.88;100.00;102012.56;5109868;28;20031;-73
2022/07/23 09:23:55;;;;;;;3.85;2.08;;;;;;;20.94;100.00;102010.75;5109149;28;20058;-73
2022/07/23 09:26:21;;;;;;;3.97;2.03;;;;;;;20.97;100.00;102003.59;5116062;28;20107;-73
2022/07/23 09:29:08;;;;;;;7.78;2.10;;;;;;;21.05;100.00;102008.88;5094012;28;20055;-73
2022/07/23 09:31:47;;;;;;;7.28;2.00;;;;;;;21.04;100.00;102012.47;5095417;28;20095;-74
2022/07/23 09:34:20;;;;;;;4.68;1.83;;;;;;;21.25;100.00;102010.50;5102756;28;20038;-74
2022/07/23 09:36:46;;;;;;;3.65;2.00;;;;;;;21.30;100.00;102014.03;5113569;28;20026;-73
2022/07/23 09:39:14;;;;;;;4.93;2.20;;;;;;;21.26;100.00;102006.94;5107196;28;20077;-74
2022/07/23 09:41:42;;;;;;;7.65;2.28;;;;;;;21.39;100.00;102011.25;5107004;28;20111;-73
2022/07/23 09:44:14;;;;;;;5.85;2.38;;;;;;;21.47;100.00;102000.47;5095802;28;20031;-74
2022/07/23 09:46:40;;;;;;;3.88;2.10;;;;;;;21.51;100.00;102008.47;5077493;28;20389;-73
2022/07/23 09:49:15;;;;;;;3.63;1.75;;;;;;;21.63;100.00;102004.78;5097831;28;20353;-72
2022/07/23 09:51:46;;;;;;;6.15;1.88;;;;;;;21.80;100.00;102009.03;5096875;28;20032;-71
2022/07/23 09:54:35;;;;;;;2.38;1.88;;;;;;;21.88;100.00;102016.09;5106132;28;20068;-68
2022/07/23 09:57:13;;;;;;;3.50;1.60;;;;;;;22.01;100.00;102007.91;5109985;28;20054;-72
2022/07/23 09:59:39;;;;;;;5.75;2.55;;;;;;;21.88;100.00;102012.53;5099039;28;20024;-73
2022/07/23 10:02:06;;;;;;;5.93;2.50;;;;;;;21.99;100.00;102015.06;5109568;28;20034;-74
2022/07/23 10:04:33;;;;;;;10.95;2.35;;;;;;;22.26;100.00;102011.19;5109959;28;20050;-74
2022/07/23 10:07:01;;;;;;;12.68;2.40;;;;;;;22.38;97.58;102002.09;5095435;28;20039;-72
2022/07/23 10:09:32;;;;;;;2.92;1.60;;;;;;;22.55;100.00;102001.84;5100751;28;20420;-73
2022/07/23 10:14:46;;;;;;;3.25;1.50;;;;;;;22.93;98.54;102010.22;5114939;28;20062;-73
2022/07/23 10:17:11;;;;;;;3.13;1.40;;;;;;;23.03;96.06;102010.03;5102025;28;20024;-72
2022/07/23 10:19:38;;;;;;;8.82;1.80;;;;;;;23.12;90.45;102000.94;5113951;28;20027;-72
2022/07/23 10:22:09;;;;;;;1.50;1.30;;;;;;;22.93;91.29;102010.22;5114128;28;20023;-73
2022/07/23 10:24:53;;;;;;;3.88;1.85;;;;;;;22.91;91.34;102007.53;5089370;28;20051;-73
2022/07/23 10:27:43;;;;;;;5.60;1.85;;;;;;;22.87;92.08;102006.72;5109065;28;20479;-73
2022/07/23 10:30:19;;;;;;;3.50;1.95;;;;;;;22.72;92.23;101998.88;5114344;28;20027;-72
2022/07/23 10:33:04;;;;;;;6.82;2.47;;;;;;;22.65;93.45;102005.28;5107242;28;20084;-72
2022/07/23 10:35:33;;;;;;;4.68;2.03;;;;;;;22.60;96.93;101997.31;5094925;28;20070;-73
2022/07/23 10:38:11;;;;;;;4.20;1.95;;;;;;;22.68;93.35;101999.84;5112766;28;20039;-72
2022/07/23 10:40:36;;;;;;;5.18;2.20;;;;;;;22.86;95.53;101999.56;5112063;28;20493;-72
2022/07/23 10:43:15;;;;;;;7.18;2.05;;;;;;;23.09;100.00;102001.00;5107603;28;20027;-73
2022/07/23 10:45:40;;;;;;;3.13;1.90;;;;;;;23.27;93.73;101998.94;5111669;28;20027;-72
2022/07/23 10:48:15;;;;;;;8.23;2.88;;;;;;;23.38;96.88;101999.59;5109209;28;20475;-72
2022/07/23 10:50:41;;;;;;;3.55;1.90;;;;;;;23.54;92.99;101993.03;5091908;28;20055;-73
2022/07/23 10:53:07;;;;;;;11.30;3.25;;;;;;;23.75;98.62;101996.19;5112297;28;20080;-73
2022/07/23 10:55:33;;;;;;;2.92;1.50;;;;;;;24.09;95.93;101990.13;5110905;28;20033;-73
2022/07/23 10:57:59;;;;;;;4.13;2.00;;;;;;;24.15;91.05;101989.16;5103364;28;20130;-72
2022/07/23 11:00:29;;;;;;;3.65;1.95;;;;;;;24.24;92.26;101995.19;5114247;28;20078;-71
2022/07/23 11:02:59;;;;;;;3.78;1.95;;;;;;;24.22;91.33;101993.47;5102114;28;20028;-72
2022/07/23 11:05:39;;;;;;;3.85;2.00;;;;;;;24.06;85.51;101990.22;5083623;28;20494;-72
2022/07/23 11:08:08;;;;;;;7.20;2.53;;;;;;;23.90;94.18;101998.63;5107514;28;20058;-73
2022/07/23 11:10:35;;;;;;;5.28;2.13;;;;;;;23.73;95.94;101996.22;5102607;28;20039;-74
2022/07/23 11:13:22;;;;;;;2.50;1.70;;;;;;;23.76;89.26;101991.72;5084950;28;20020;-74
2022/07/23 11:16:08;;;;;;;4.20;2.33;;;;;;;24.00;87.65;101991.22;5107627;28;20027;-73
2022/07/23 11:18:40;;;;;;;3.55;1.98;;;;;;;24.27;92.84;101993.34;5108648;28;20109;-74